Weather at Puerto Princesa Airport

Public forecast

Using degrees Celsius for public forecast. Weather courtesy of forecast.io.

Current aviation weather report (METAR) for Puerto Princesa Airport

Report is more than 6 hours old.

Retrieved 2021/07/06 07:00 UTC (4 months ago):

RPVP 060700Z 18040KT 9999 SCT019 OVC080 28/24 Q1007 RMK A2974

Aviation forecast (TAF) for Puerto Princesa Airport

Forecast is more than 12 hours old.

Retrieved 2021/07/06 06:06 UTC (4 months ago):

TAF RPVP 060500Z 0606/0706 18004KT 9999 FEW019 BKN080 TEMPO 0606/0612 27010KT 8000 -TSRA FEW017CB SCT019 OVC080